sensor_id;sensor_type;location;lat;lon;timestamp;pressure;altitude;pressure_sealevel;temperature;humidity
75538;BME280;64121;48.666;8.114;2023-06-14T00:00:42;99442.16;;;13.30;61.06
75538;BME280;64121;48.666;8.114;2023-06-14T00:03:09;99442.53;;;13.28;60.92
75538;BME280;64121;48.666;8.114;2023-06-14T00:05:34;99446.06;;;13.22;61.05
75538;BME280;64121;48.666;8.114;2023-06-14T00:07:59;99456.03;;;13.23;60.66
75538;BME280;64121;48.666;8.114;2023-06-14T00:10:24;99446.53;;;13.27;60.34
75538;BME280;64121;48.666;8.114;2023-06-14T00:12:50;99452.44;;;13.22;62.04
75538;BME280;64121;48.666;8.114;2023-06-14T00:15:15;99441.81;;;13.05;61.70
75538;BME280;64121;48.666;8.114;2023-06-14T00:17:40;99436.53;;;13.00;61.05
75538;BME280;64121;48.666;8.114;2023-06-14T00:20:08;99437.03;;;13.06;61.05
75538;BME280;64121;48.666;8.114;2023-06-14T00:22:34;99438.75;;;13.17;61.54
75538;BME280;64121;48.666;8.114;2023-06-14T00:24:59;99431.44;;;13.06;61.93
75538;BME280;64121;48.666;8.114;2023-06-14T00:27:24;99431.34;;;12.98;61.33
75538;BME280;64121;48.666;8.114;2023-06-14T00:29:50;99438.00;;;12.90;61.56
75538;BME280;64121;48.666;8.114;2023-06-14T00:32:15;99444.13;;;12.99;62.20
75538;BME280;64121;48.666;8.114;2023-06-14T00:34:41;99443.41;;;13.06;61.32
75538;BME280;64121;48.666;8.114;2023-06-14T00:37:07;99429.03;;;13.04;62.87
75538;BME280;64121;48.666;8.114;2023-06-14T00:39:33;99433.31;;;12.98;63.00
75538;BME280;64121;48.666;8.114;2023-06-14T00:41:59;99440.00;;;12.90;61.89
75538;BME280;64121;48.666;8.114;2023-06-14T00:44:24;99434.00;;;12.88;61.96
75538;BME280;64121;48.666;8.114;2023-06-14T00:46:49;99437.22;;;12.90;61.61
75538;BME280;64121;48.666;8.114;2023-06-14T00:49:15;99433.28;;;12.94;61.02
75538;BME280;64121;48.666;8.114;2023-06-14T00:51:42;99436.59;;;13.03;61.92
75538;BME280;64121;48.666;8.114;2023-06-14T00:54:09;99435.84;;;13.07;61.92
75538;BME280;64121;48.666;8.114;2023-06-14T00:56:35;99426.94;;;12.97;62.62
75538;BME280;64121;48.666;8.114;2023-06-14T00:59:02;99435.06;;;12.80;62.41
75538;BME280;64121;48.666;8.114;2023-06-14T01:01:28;99436.09;;;12.68;61.45
75538;BME280;64121;48.666;8.114;2023-06-14T01:03:53;99441.03;;;12.78;62.71
75538;BME280;64121;48.666;8.114;2023-06-14T01:06:23;99435.50;;;12.55;63.42
75538;BME280;64121;48.666;8.114;2023-06-14T01:08:57;99436.31;;;12.56;63.45
75538;BME280;64121;48.666;8.114;2023-06-14T01:11:31;99425.25;;;12.63;63.00
75538;BME280;64121;48.666;8.114;2023-06-14T01:14:00;99434.66;;;12.51;63.81
75538;BME280;64121;48.666;8.114;2023-06-14T01:16:27;99434.16;;;12.46;63.93
75538;BME280;64121;48.666;8.114;2023-06-14T01:18:54;99436.41;;;12.36;64.39
75538;BME280;64121;48.666;8.114;2023-06-14T01:21:22;99447.47;;;12.29;64.78
75538;BME280;64121;48.666;8.114;2023-06-14T01:23:49;99452.06;;;12.44;64.54
75538;BME280;64121;48.666;8.114;2023-06-14T01:26:15;99442.47;;;12.42;64.81
75538;BME280;64121;48.666;8.114;2023-06-14T01:28:40;99448.97;;;12.50;64.92
75538;BME280;64121;48.666;8.114;2023-06-14T01:31:07;99455.09;;;12.32;65.29
75538;BME280;64121;48.666;8.114;2023-06-14T01:33:33;99452.53;;;12.24;65.50
75538;BME280;64121;48.666;8.114;2023-06-14T01:36:02;99448.56;;;12.25;65.57
75538;BME280;64121;48.666;8.114;2023-06-14T01:38:28;99456.19;;;12.05;66.58
75538;BME280;64121;48.666;8.114;2023-06-14T01:40:58;99445.84;;;12.05;65.92
75538;BME280;64121;48.666;8.114;2023-06-14T01:43:25;99449.22;;;11.92;67.13
75538;BME280;64121;48.666;8.114;2023-06-14T01:45:51;99449.22;;;11.92;66.42
75538;BME280;64121;48.666;8.114;2023-06-14T01:48:18;99451.31;;;11.98;65.74
75538;BME280;64121;48.666;8.114;2023-06-14T01:50:44;99458.50;;;11.99;66.56
75538;BME280;64121;48.666;8.114;2023-06-14T01:53:10;99453.19;;;11.91;66.12
75538;BME280;64121;48.666;8.114;2023-06-14T01:55:35;99460.44;;;11.76;66.15
75538;BME280;64121;48.666;8.114;2023-06-14T01:58:02;99454.94;;;11.79;66.59
75538;BME280;64121;48.666;8.114;2023-06-14T02:00:28;99460.66;;;11.87;66.48
75538;BME280;64121;48.666;8.114;2023-06-14T02:02:53;99461.38;;;11.64;67.63
75538;BME280;64121;48.666;8.114;2023-06-14T02:05:18;99455.69;;;11.57;67.25
75538;BME280;64121;48.666;8.114;2023-06-14T02:07:44;99459.78;;;11.63;67.19
75538;BME280;64121;48.666;8.114;2023-06-14T02:10:09;99465.41;;;11.67;67.80
75538;BME280;64121;48.666;8.114;2023-06-14T02:12:35;99465.00;;;11.45;69.06
75538;BME280;64121;48.666;8.114;2023-06-14T02:15:01;99465.13;;;11.52;68.01
75538;BME280;64121;48.666;8.114;2023-06-14T02:17:27;99463.38;;;11.44;68.54
75538;BME280;64121;48.666;8.114;2023-06-14T02:19:52;99463.38;;;11.44;68.91
75538;BME280;64121;48.666;8.114;2023-06-14T02:22:17;99455.78;;;11.22;69.80
75538;BME280;64121;48.666;8.114;2023-06-14T02:24:43;99458.44;;;11.34;69.90
75538;BME280;64121;48.666;8.114;2023-06-14T02:27:08;99461.53;;;11.13;70.15
75538;BME280;64121;48.666;8.114;2023-06-14T02:29:33;99457.50;;;11.11;70.06
75538;BME280;64121;48.666;8.114;2023-06-14T02:32:00;99462.09;;;11.19;69.83
75538;BME280;64121;48.666;8.114;2023-06-14T02:34:25;99458.69;;;11.10;70.53
75538;BME280;64121;48.666;8.114;2023-06-14T02:36:51;99461.97;;;11.15;70.60
75538;BME280;64121;48.666;8.114;2023-06-14T02:39:16;99462.88;;;11.00;71.15
75538;BME280;64121;48.666;8.114;2023-06-14T02:41:41;99459.66;;;10.98;70.36
75538;BME280;64121;48.666;8.114;2023-06-14T02:44:07;99464.31;;;10.94;70.31
75538;BME280;64121;48.666;8.114;2023-06-14T02:46:32;99463.88;;;10.92;70.88
75538;BME280;64121;48.666;8.114;2023-06-14T02:48:59;99465.22;;;10.98;70.87
75538;BME280;64121;48.666;8.114;2023-06-14T02:51:24;99461.63;;;10.98;71.23
75538;BME280;64121;48.666;8.114;2023-06-14T02:53:50;99460.66;;;10.90;71.66
75538;BME280;64121;48.666;8.114;2023-06-14T02:56:15;99466.94;;;10.87;72.21
75538;BME280;64121;48.666;8.114;2023-06-14T02:58:40;99474.78;;;10.81;71.38
75538;BME280;64121;48.666;8.114;2023-06-14T03:01:06;99472.50;;;10.87;71.99
75538;BME280;64121;48.666;8.114;2023-06-14T03:03:31;99474.56;;;10.90;71.55
75538;BME280;64121;48.666;8.114;2023-06-14T03:05:58;99479.41;;;10.93;71.80
75538;BME280;64121;48.666;8.114;2023-06-14T03:08:23;99483.56;;;10.83;71.70
75538;BME280;64121;48.666;8.114;2023-06-14T03:10:49;99481.81;;;10.95;71.84
75538;BME280;64121;48.666;8.114;2023-06-14T03:13:15;99480.97;;;10.75;72.01
75538;BME280;64121;48.666;8.114;2023-06-14T03:15:40;99481.41;;;10.77;73.41
75538;BME280;64121;48.666;8.114;2023-06-14T03:18:06;99485.94;;;10.50;73.45
75538;BME280;64121;48.666;8.114;2023-06-14T03:20:31;99494.94;;;10.43;74.56
75538;BME280;64121;48.666;8.114;2023-06-14T03:22:58;99495.09;;;10.35;73.38
75538;BME280;64121;48.666;8.114;2023-06-14T03:25:23;99507.03;;;10.35;73.73
75538;BME280;64121;48.666;8.114;2023-06-14T03:27:48;99494.13;;;10.27;74.78
75538;BME280;64121;48.666;8.114;2023-06-14T03:30:14;99504.78;;;10.41;73.32
75538;BME280;64121;48.666;8.114;2023-06-14T03:32:39;99508.13;;;10.46;73.81
75538;BME280;64121;48.666;8.114;2023-06-14T03:35:05;99510.63;;;10.51;73.69
75538;BME280;64121;48.666;8.114;2023-06-14T03:37:31;99501.81;;;10.65;73.42
75538;BME280;64121;48.666;8.114;2023-06-14T03:39:57;99515.91;;;10.56;73.07
75538;BME280;64121;48.666;8.114;2023-06-14T03:42:23;99515.66;;;10.46;73.24
75538;BME280;64121;48.666;8.114;2023-06-14T03:44:48;99519.06;;;10.39;74.34
75538;BME280;64121;48.666;8.114;2023-06-14T03:47:13;99515.03;;;10.37;73.79
75538;BME280;64121;48.666;8.114;2023-06-14T03:49:39;99518.34;;;10.42;74.01
75538;BME280;64121;48.666;8.114;2023-06-14T03:52:04;99528.69;;;10.42;73.91
75538;BME280;64121;48.666;8.114;2023-06-14T03:54:30;99530.75;;;10.45;73.19
75538;BME280;64121;48.666;8.114;2023-06-14T03:56:56;99526.94;;;10.53;73.07
75538;BME280;64121;48.666;8.114;2023-06-14T03:59:22;99529.66;;;10.49;75.04
75538;BME280;64121;48.666;8.114;2023-06-14T04:01:47;99536.09;;;10.53;74.63
75538;BME280;64121;48.666;8.114;2023-06-14T04:04:13;99534.94;;;10.54;74.67
75538;BME280;64121;48.666;8.114;2023-06-14T04:06:38;99541.59;;;10.50;73.74
75538;BME280;64121;48.666;8.114;2023-06-14T04:09:03;99542.38;;;10.50;75.30
75538;BME280;64121;48.666;8.114;2023-06-14T04:11:29;99530.38;;;10.46;74.89
75538;BME280;64121;48.666;8.114;2023-06-14T04:13:56;99536.91;;;10.70;73.90
75538;BME280;64121;48.666;8.114;2023-06-14T04:16:22;99534.09;;;10.85;73.76
75538;BME280;64121;48.666;8.114;2023-06-14T04:18:47;99545.13;;;10.98;73.17
75538;BME280;64121;48.666;8.114;2023-06-14T04:21:12;99545.66;;;11.03;73.37
75538;BME280;64121;48.666;8.114;2023-06-14T04:23:38;99550.06;;;11.04;73.50
75538;BME280;64121;48.666;8.114;2023-06-14T04:26:03;99555.78;;;11.11;73.07
75538;BME280;64121;48.666;8.114;2023-06-14T04:28:29;99554.78;;;11.19;72.29
75538;BME280;64121;48.666;8.114;2023-06-14T04:30:55;99549.66;;;11.21;73.22
75538;BME280;64121;48.666;8.114;2023-06-14T04:33:21;99558.00;;;11.21;73.11
75538;BME280;64121;48.666;8.114;2023-06-14T04:35:46;99558.53;;;11.27;72.68
75538;BME280;64121;48.666;8.114;2023-06-14T04:38:11;99565.88;;;11.35;72.52
75538;BME280;64121;48.666;8.114;2023-06-14T04:40:37;99563.69;;;11.44;72.75
75538;BME280;64121;48.666;8.114;2023-06-14T04:43:02;99570.56;;;11.50;72.12
75538;BME280;64121;48.666;8.114;2023-06-14T04:45:27;99564.44;;;11.61;72.42
75538;BME280;64121;48.666;8.114;2023-06-14T04:47:54;99572.28;;;11.74;72.55
75538;BME280;64121;48.666;8.114;2023-06-14T04:50:19;99568.50;;;11.82;71.92
75538;BME280;64121;48.666;8.114;2023-06-14T04:52:45;99575.03;;;11.90;71.55
75538;BME280;64121;48.666;8.114;2023-06-14T04:55:10;99578.38;;;12.87;68.85
75538;BME280;64121;48.666;8.114;2023-06-14T04:57:35;99578.53;;;14.89;62.03
75538;BME280;64121;48.666;8.114;2023-06-14T05:00:01;99588.50;;;16.31;57.21
75538;BME280;64121;48.666;8.114;2023-06-14T05:02:26;99590.50;;;17.84;52.86
75538;BME280;64121;48.666;8.114;2023-06-14T05:04:53;99585.78;;;19.06;48.58
75538;BME280;64121;48.666;8.114;2023-06-14T05:07:18;99596.00;;;18.86;48.08
75538;BME280;64121;48.666;8.114;2023-06-14T05:09:44;99595.19;;;19.33;45.78
75538;BME280;64121;48.666;8.114;2023-06-14T05:12:09;99605.53;;;20.53;43.31
75538;BME280;64121;48.666;8.114;2023-06-14T05:14:35;99606.59;;;20.63;41.89
75538;BME280;64121;48.666;8.114;2023-06-14T05:17:00;99605.66;;;20.46;41.73
75538;BME280;64121;48.666;8.114;2023-06-14T05:19:26;99591.09;;;20.44;41.97
75538;BME280;64121;48.666;8.114;2023-06-14T05:21:52;99599.34;;;19.63;43.70
75538;BME280;64121;48.666;8.114;2023-06-14T05:24:17;99593.06;;;19.03;44.40
75538;BME280;64121;48.666;8.114;2023-06-14T05:26:43;99593.19;;;18.86;45.30
75538;BME280;64121;48.666;8.114;2023-06-14T05:29:09;99592.63;;;18.46;45.75
75538;BME280;64121;48.666;8.114;2023-06-14T05:31:34;99594.44;;;18.77;46.79
75538;BME280;64121;48.666;8.114;2023-06-14T05:33:59;99592.69;;;18.35;45.68
75538;BME280;64121;48.666;8.114;2023-06-14T05:36:25;99594.72;;;18.31;46.43
75538;BME280;64121;48.666;8.114;2023-06-14T05:38:51;99597.78;;;17.67;48.13
75538;BME280;64121;48.666;8.114;2023-06-14T05:41:17;99597.81;;;17.42;48.87
75538;BME280;64121;48.666;8.114;2023-06-14T05:43:42;99603.88;;;17.19;49.82
75538;BME280;64121;48.666;8.114;2023-06-14T05:46:08;99606.22;;;17.64;49.33
75538;BME280;64121;48.666;8.114;2023-06-14T05:48:33;99605.88;;;17.33;49.56
75538;BME280;64121;48.666;8.114;2023-06-14T05:50:58;99609.91;;;17.36;49.81
75538;BME280;64121;48.666;8.114;2023-06-14T05:53:24;99593.41;;;17.52;50.64
75538;BME280;64121;48.666;8.114;2023-06-14T05:55:51;99603.06;;;17.26;50.11
75538;BME280;64121;48.666;8.114;2023-06-14T05:58:16;99607.09;;;17.07;52.11
75538;BME280;64121;48.666;8.114;2023-06-14T06:00:41;99615.53;;;17.21;50.76
75538;BME280;64121;48.666;8.114;2023-06-14T06:03:07;99610.28;;;17.38;50.79
75538;BME280;64121;48.666;8.114;2023-06-14T06:05:32;99616.31;;;17.50;52.20
75538;BME280;64121;48.666;8.114;2023-06-14T06:07:57;99607.00;;;17.78;52.06
75538;BME280;64121;48.666;8.114;2023-06-14T06:10:23;99615.84;;;17.88;50.62
75538;BME280;64121;48.666;8.114;2023-06-14T06:12:49;99613.13;;;17.23;51.51
75538;BME280;64121;48.666;8.114;2023-06-14T06:15:15;99617.13;;;17.51;49.91
75538;BME280;64121;48.666;8.114;2023-06-14T06:17:40;99625.53;;;17.69;49.39
75538;BME280;64121;48.666;8.114;2023-06-14T06:20:06;99622.69;;;17.87;50.33
75538;BME280;64121;48.666;8.114;2023-06-14T06:22:32;99630.16;;;18.22;50.00
75538;BME280;64121;48.666;8.114;2023-06-14T06:24:57;99632.00;;;18.57;48.99
75538;BME280;64121;48.666;8.114;2023-06-14T06:27:23;99628.72;;;18.72;47.99
75538;BME280;64121;48.666;8.114;2023-06-14T06:29:49;99627.16;;;18.64;47.21
75538;BME280;64121;48.666;8.114;2023-06-14T06:32:15;99628.34;;;18.70;47.56
75538;BME280;64121;48.666;8.114;2023-06-14T06:34:40;99631.75;;;18.96;46.26
75538;BME280;64121;48.666;8.114;2023-06-14T06:37:06;99624.16;;;18.89;47.64
75538;BME280;64121;48.666;8.114;2023-06-14T06:39:31;99629.38;;;18.94;47.04
75538;BME280;64121;48.666;8.114;2023-06-14T06:41:56;99632.03;;;19.16;45.90
75538;BME280;64121;48.666;8.114;2023-06-14T06:44:22;99638.16;;;19.03;46.77
75538;BME280;64121;48.666;8.114;2023-06-14T06:46:49;99636.31;;;19.31;47.11
75538;BME280;64121;48.666;8.114;2023-06-14T06:49:14;99633.88;;;19.33;45.36
75538;BME280;64121;48.666;8.114;2023-06-14T06:51:41;99636.94;;;19.56;45.51
75538;BME280;64121;48.666;8.114;2023-06-14T06:54:07;99641.28;;;19.64;45.31
75538;BME280;64121;48.666;8.114;2023-06-14T06:56:32;99645.41;;;19.53;44.35
75538;BME280;64121;48.666;8.114;2023-06-14T06:58:58;99640.84;;;19.66;44.20
75538;BME280;64121;48.666;8.114;2023-06-14T07:01:23;99641.97;;;19.34;45.79
75538;BME280;64121;48.666;8.114;2023-06-14T07:03:51;99642.06;;;19.65;45.10
75538;BME280;64121;48.666;8.114;2023-06-14T07:06:16;99657.16;;;19.89;45.12
75538;BME280;64121;48.666;8.114;2023-06-14T07:08:42;99650.22;;;19.97;45.89
75538;BME280;64121;48.666;8.114;2023-06-14T07:11:07;99655.81;;;20.35;45.06
75538;BME280;64121;48.666;8.114;2023-06-14T07:13:33;99644.44;;;20.72;46.09
75538;BME280;64121;48.666;8.114;2023-06-14T07:15:59;99649.31;;;20.38;44.45
75538;BME280;64121;48.666;8.114;2023-06-14T07:18:25;99644.84;;;20.40;45.05
75538;BME280;64121;48.666;8.114;2023-06-14T07:20:52;99653.56;;;20.83;44.29
75538;BME280;64121;48.666;8.114;2023-06-14T07:23:18;99650.59;;;20.64;43.39
75538;BME280;64121;48.666;8.114;2023-06-14T07:25:43;99648.19;;;20.62;44.88
75538;BME280;64121;48.666;8.114;2023-06-14T07:28:08;99655.25;;;20.77;43.87
75538;BME280;64121;48.666;8.114;2023-06-14T07:30:35;99651.03;;;21.16;42.89
75538;BME280;64121;48.666;8.114;2023-06-14T07:33:01;99653.78;;;21.20;42.05
75538;BME280;64121;48.666;8.114;2023-06-14T07:35:26;99657.16;;;21.38;41.60
75538;BME280;64121;48.666;8.114;2023-06-14T07:37:53;99652.78;;;21.33;42.02
75538;BME280;64121;48.666;8.114;2023-06-14T07:40:18;99655.22;;;21.58;41.94
75538;BME280;64121;48.666;8.114;2023-06-14T07:42:43;99658.78;;;21.39;41.63
75538;BME280;64121;48.666;8.114;2023-06-14T07:45:09;99659.00;;;21.71;40.63
75538;BME280;64121;48.666;8.114;2023-06-14T07:47:35;99659.38;;;21.93;40.46
75538;BME280;64121;48.666;8.114;2023-06-14T07:50:00;99665.19;;;22.29;40.07
75538;BME280;64121;48.666;8.114;2023-06-14T07:52:26;99665.06;;;22.17;40.01
75538;BME280;64121;48.666;8.114;2023-06-14T07:54:52;99658.66;;;22.13;40.75
75538;BME280;64121;48.666;8.114;2023-06-14T07:57:18;99658.56;;;22.36;40.70
75538;BME280;64121;48.666;8.114;2023-06-14T07:59:43;99659.47;;;22.89;41.35
75538;BME280;64121;48.666;8.114;2023-06-14T08:02:08;99667.38;;;22.98;39.26
75538;BME280;64121;48.666;8.114;2023-06-14T08:04:34;99666.16;;;22.79;39.36
75538;BME280;64121;48.666;8.114;2023-06-14T08:06:59;99669.16;;;23.08;39.13
75538;BME280;64121;48.666;8.114;2023-06-14T08:09:25;99662.25;;;23.09;38.41
75538;BME280;64121;48.666;8.114;2023-06-14T08:11:52;99670.22;;;23.14;38.63
75538;BME280;64121;48.666;8.114;2023-06-14T08:14:17;99660.72;;;23.04;39.31
75538;BME280;64121;48.666;8.114;2023-06-14T08:16:42;99659.38;;;22.92;38.92
75538;BME280;64121;48.666;8.114;2023-06-14T08:19:08;99659.78;;;23.27;38.33
75538;BME280;64121;48.666;8.114;2023-06-14T08:21:33;99650.53;;;23.23;38.78
75538;BME280;64121;48.666;8.114;2023-06-14T08:23:59;99654.25;;;23.04;39.63
75538;BME280;64121;48.666;8.114;2023-06-14T08:26:24;99654.25;;;22.87;39.38
75538;BME280;64121;48.666;8.114;2023-06-14T08:28:51;99658.25;;;23.71;37.87
75538;BME280;64121;48.666;8.114;2023-06-14T08:31:16;99656.44;;;23.77;37.93
75538;BME280;64121;48.666;8.114;2023-06-14T08:33:42;99647.69;;;23.39;39.33
75538;BME280;64121;48.666;8.114;2023-06-14T08:36:07;99649.28;;;23.73;38.32
75538;BME280;64121;48.666;8.114;2023-06-14T08:38:32;99653.63;;;24.06;37.54
75538;BME280;64121;48.666;8.114;2023-06-14T08:40:57;99658.00;;;23.66;38.28
75538;BME280;64121;48.666;8.114;2023-06-14T08:43:23;99653.72;;;23.74;37.88
75538;BME280;64121;48.666;8.114;2023-06-14T08:45:52;99655.16;;;23.66;38.38
75538;BME280;64121;48.666;8.114;2023-06-14T08:48:19;99657.63;;;24.09;37.72
75538;BME280;64121;48.666;8.114;2023-06-14T08:50:45;99655.56;;;24.09;37.87
75538;BME280;64121;48.666;8.114;2023-06-14T08:53:13;99651.50;;;24.10;38.13
75538;BME280;64121;48.666;8.114;2023-06-14T08:55:39;99654.72;;;23.67;37.56
75538;BME280;64121;48.666;8.114;2023-06-14T08:58:04;99650.59;;;23.84;38.42
75538;BME280;64121;48.666;8.114;2023-06-14T09:00:30;99655.97;;;23.95;38.60
75538;BME280;64121;48.666;8.114;2023-06-14T09:02:57;99656.66;;;24.70;38.50
75538;BME280;64121;48.666;8.114;2023-06-14T09:05:23;99650.34;;;24.08;37.77
75538;BME280;64121;48.666;8.114;2023-06-14T09:07:48;99670.06;;;24.44;38.29
75538;BME280;64121;48.666;8.114;2023-06-14T09:10:15;99658.09;;;24.36;38.28
75538;BME280;64121;48.666;8.114;2023-06-14T09:12:40;99663.50;;;24.60;37.09
75538;BME280;64121;48.666;8.114;2023-06-14T09:15:06;99661.91;;;24.59;37.38
75538;BME280;64121;48.666;8.114;2023-06-14T09:17:32;99661.03;;;24.33;37.32
75538;BME280;64121;48.666;8.114;2023-06-14T09:19:59;99654.53;;;24.32;38.86
75538;BME280;64121;48.666;8.114;2023-06-14T09:22:26;99663.00;;;24.49;37.77
75538;BME280;64121;48.666;8.114;2023-06-14T09:24:54;99661.34;;;24.89;37.07
75538;BME280;64121;48.666;8.114;2023-06-14T09:27:19;99661.16;;;24.96;36.41
75538;BME280;64121;48.666;8.114;2023-06-14T09:29:45;99664.13;;;25.05;36.50
75538;BME280;64121;48.666;8.114;2023-06-14T09:32:10;99657.63;;;25.05;36.49
75538;BME280;64121;48.666;8.114;2023-06-14T09:34:35;99666.72;;;25.38;36.47
75538;BME280;64121;48.666;8.114;2023-06-14T09:37:03;99668.75;;;25.50;35.50
75538;BME280;64121;48.666;8.114;2023-06-14T09:39:28;99683.00;;;25.50;36.14
75538;BME280;64121;48.666;8.114;2023-06-14T09:41:53;99681.66;;;25.29;35.84
75538;BME280;64121;48.666;8.114;2023-06-14T09:44:19;99678.78;;;25.68;35.02
75538;BME280;64121;48.666;8.114;2023-06-14T09:46:45;99684.81;;;25.57;35.15
75538;BME280;64121;48.666;8.114;2023-06-14T09:49:11;99678.66;;;25.46;35.71
75538;BME280;64121;48.666;8.114;2023-06-14T09:51:42;99672.91;;;25.11;36.41
75538;BME280;64121;48.666;8.114;2023-06-14T09:54:14;99683.09;;;25.59;32.79
75538;BME280;64121;48.666;8.114;2023-06-14T09:56:41;99680.78;;;26.14;32.08
75538;BME280;64121;48.666;8.114;2023-06-14T09:59:10;99684.56;;;25.77;32.46
75538;BME280;64121;48.666;8.114;2023-06-14T10:01:41;99683.97;;;25.82;31.63
75538;BME280;64121;48.666;8.114;2023-06-14T10:04:09;99681.28;;;25.53;32.05
75538;BME280;64121;48.666;8.114;2023-06-14T10:06:36;99685.16;;;25.46;31.65
75538;BME280;64121;48.666;8.114;2023-06-14T10:09:03;99691.06;;;25.77;32.14
75538;BME280;64121;48.666;8.114;2023-06-14T10:11:31;99682.06;;;25.79;32.06
75538;BME280;64121;48.666;8.114;2023-06-14T10:13:57;99680.75;;;25.92;32.54
75538;BME280;64121;48.666;8.114;2023-06-14T10:16:28;99680.78;;;25.80;33.23
75538;BME280;64121;48.666;8.114;2023-06-14T10:19:04;99671.44;;;26.14;33.71
75538;BME280;64121;48.666;8.114;2023-06-14T10:21:37;99689.38;;;25.67;32.97
75538;BME280;64121;48.666;8.114;2023-06-14T10:24:08;99678.34;;;26.04;32.40
75538;BME280;64121;48.666;8.114;2023-06-14T10:26:50;99682.06;;;26.57;32.73
75538;BME280;64121;48.666;8.114;2023-06-14T10:29:15;99687.56;;;26.30;33.01
75538;BME280;64121;48.666;8.114;2023-06-14T10:31:42;99680.97;;;25.98;32.36
75538;BME280;64121;48.666;8.114;2023-06-14T10:34:08;99678.88;;;26.11;33.30
75538;BME280;64121;48.666;8.114;2023-06-14T10:36:33;99677.41;;;26.29;31.48
75538;BME280;64121;48.666;8.114;2023-06-14T10:39:01;99674.22;;;26.05;31.78
75538;BME280;64121;48.666;8.114;2023-06-14T10:41:29;99693.50;;;26.35;31.30
75538;BME280;64121;48.666;8.114;2023-06-14T10:47:27;99690.66;;;26.35;30.93
75538;BME280;64121;48.666;8.114;2023-06-14T10:49:54;99676.38;;;26.35;30.47
75538;BME280;64121;48.666;8.114;2023-06-14T10:52:25;99679.28;;;26.22;31.37
75538;BME280;64121;48.666;8.114;2023-06-14T10:55:06;99678.34;;;26.69;29.23
75538;BME280;64121;48.666;8.114;2023-06-14T10:57:32;99685.06;;;27.46;28.36
75538;BME280;64121;48.666;8.114;2023-06-14T10:59:58;99687.06;;;26.44;28.27
75538;BME280;64121;48.666;8.114;2023-06-14T11:02:49;99672.63;;;26.69;29.08
75538;BME280;64121;48.666;8.114;2023-06-14T11:05:23;99693.59;;;26.32;28.87
75538;BME280;64121;48.666;8.114;2023-06-14T11:07:52;99693.59;;;26.44;29.83
75538;BME280;64121;48.666;8.114;2023-06-14T11:10:26;99690.59;;;26.48;29.35
75538;BME280;64121;48.666;8.114;2023-06-14T11:12:54;99693.84;;;26.59;28.62
75538;BME280;64121;48.666;8.114;2023-06-14T11:15:20;99681.97;;;26.04;29.07
75538;BME280;64121;48.666;8.114;2023-06-14T11:17:53;99685.38;;;26.34;29.15
75538;BME280;64121;48.666;8.114;2023-06-14T11:20:19;99696.97;;;27.05;28.05
75538;BME280;64121;48.666;8.114;2023-06-14T11:22:45;99692.47;;;26.73;27.81
75538;BME280;64121;48.666;8.114;2023-06-14T11:25:11;99689.03;;;26.56;27.98
75538;BME280;64121;48.666;8.114;2023-06-14T11:27:36;99696.84;;;26.21;28.08
75538;BME280;64121;48.666;8.114;2023-06-14T11:30:02;99686.97;;;25.78;29.03
75538;BME280;64121;48.666;8.114;2023-06-14T11:32:28;99678.69;;;26.27;29.32
75538;BME280;64121;48.666;8.114;2023-06-14T11:34:55;99683.25;;;26.69;28.19
75538;BME280;64121;48.666;8.114;2023-06-14T11:37:20;99677.81;;;27.14;28.54
75538;BME280;64121;48.666;8.114;2023-06-14T11:39:45;99686.66;;;27.48;27.77
75538;BME280;64121;48.666;8.114;2023-06-14T11:42:13;99681.94;;;26.82;27.89
75538;BME280;64121;48.666;8.114;2023-06-14T11:44:38;99685.56;;;26.83;28.43
75538;BME280;64121;48.666;8.114;2023-06-14T11:47:04;99688.38;;;27.36;27.57
75538;BME280;64121;48.666;8.114;2023-06-14T11:49:35;99685.22;;;26.50;28.15
75538;BME280;64121;48.666;8.114;2023-06-14T11:52:02;99667.31;;;26.80;28.19
75538;BME280;64121;48.666;8.114;2023-06-14T11:54:27;99668.75;;;26.54;28.73
75538;BME280;64121;48.666;8.114;2023-06-14T11:56:53;99665.53;;;26.30;29.20
75538;BME280;64121;48.666;8.114;2023-06-14T11:59:20;99665.50;;;26.65;28.81
75538;BME280;64121;48.666;8.114;2023-06-14T12:01:47;99673.16;;;26.11;29.20
75538;BME280;64121;48.666;8.114;2023-06-14T12:04:13;99678.06;;;26.33;29.38
75538;BME280;64121;48.666;8.114;2023-06-14T12:06:38;99673.47;;;27.01;28.06
75538;BME280;64121;48.666;8.114;2023-06-14T12:09:06;99676.63;;;27.43;28.39
75538;BME280;64121;48.666;8.114;2023-06-14T12:11:33;99671.66;;;27.25;28.11
75538;BME280;64121;48.666;8.114;2023-06-14T12:13:58;99682.09;;;26.88;28.74
75538;BME280;64121;48.666;8.114;2023-06-14T12:16:30;99667.00;;;27.09;28.56
75538;BME280;64121;48.666;8.114;2023-06-14T12:18:56;99676.03;;;27.08;27.50
75538;BME280;64121;48.666;8.114;2023-06-14T12:21:26;99673.34;;;26.82;28.92
75538;BME280;64121;48.666;8.114;2023-06-14T12:23:52;99671.75;;;27.12;27.49
75538;BME280;64121;48.666;8.114;2023-06-14T12:26:20;99677.72;;;26.43;28.67
75538;BME280;64121;48.666;8.114;2023-06-14T12:28:46;99671.91;;;26.78;28.33
75538;BME280;64121;48.666;8.114;2023-06-14T12:31:13;99670.78;;;26.53;28.47
75538;BME280;64121;48.666;8.114;2023-06-14T12:33:39;99673.06;;;26.90;28.48
75538;BME280;64121;48.666;8.114;2023-06-14T12:36:04;99671.34;;;26.39;28.76
75538;BME280;64121;48.666;8.114;2023-06-14T12:38:30;99664.81;;;26.39;28.18
75538;BME280;64121;48.666;8.114;2023-06-14T12:40:55;99666.31;;;26.74;28.34
75538;BME280;64121;48.666;8.114;2023-06-14T12:43:22;99676.03;;;26.55;27.60
75538;BME280;64121;48.666;8.114;2023-06-14T12:45:47;99669.22;;;26.52;28.67
75538;BME280;64121;48.666;8.114;2023-06-14T12:48:13;99663.53;;;26.83;29.54
75538;BME280;64121;48.666;8.114;2023-06-14T12:50:38;99657.88;;;26.62;29.07
75538;BME280;64121;48.666;8.114;2023-06-14T12:53:03;99668.16;;;27.21;28.01
75538;BME280;64121;48.666;8.114;2023-06-14T12:55:29;99670.59;;;26.70;28.25
75538;BME280;64121;48.666;8.114;2023-06-14T12:57:54;99681.59;;;26.59;28.10